createdAt,value
2022-08-27T00:00:40.936Z,50.908169
2022-08-27T00:01:41.928Z,50.908169
2022-08-27T00:02:40.899Z,50.908131
2022-08-27T00:03:40.893Z,50.908131
2022-08-27T00:04:40.961Z,50.908131
2022-08-27T00:05:40.907Z,50.908112
2022-08-27T00:06:40.872Z,50.908146
2022-08-27T00:07:40.919Z,50.908092
2022-08-27T00:08:40.885Z,50.908119
2022-08-27T00:09:40.847Z,50.908138
2022-08-27T00:10:40.874Z,50.908142
2022-08-27T00:11:40.833Z,50.908131
2022-08-27T00:12:40.826Z,50.908112
2022-08-27T00:13:40.823Z,50.908104
2022-08-27T00:14:40.808Z,50.908123
2022-08-27T00:15:40.803Z,50.908123
2022-08-27T00:16:40.843Z,50.908119
2022-08-27T00:17:40.786Z,50.908081
2022-08-27T00:18:40.776Z,50.908112
2022-08-27T00:19:40.770Z,50.908119
2022-08-27T00:20:40.789Z,50.908134
2022-08-27T00:21:40.750Z,50.908127
2022-08-27T00:22:40.743Z,50.908104
2022-08-27T00:23:40.744Z,50.908108
2022-08-27T00:24:42.086Z,50.908115
2022-08-27T00:25:41.752Z,50.908112
2022-08-27T00:26:43.312Z,50.908119
2022-08-27T00:27:41.708Z,50.908112
2022-08-27T00:28:40.700Z,50.908104
2022-08-27T00:29:40.685Z,50.908131
2022-08-27T00:30:40.681Z,50.908119
2022-08-27T00:31:40.737Z,50.908112
2022-08-27T00:32:40.664Z,50.908115
2022-08-27T00:33:40.659Z,50.908131
2022-08-27T00:34:40.658Z,50.908142
2022-08-27T00:35:40.640Z,50.908115
2022-08-27T00:36:40.661Z,50.908142
2022-08-27T00:37:40.624Z,50.908150
2022-08-27T00:38:40.622Z,50.908150
2022-08-27T00:39:40.613Z,50.908146
2022-08-27T00:40:40.604Z,50.908138
2022-08-27T00:41:40.615Z,50.908157
2022-08-27T00:42:40.586Z,50.908123
2022-08-27T00:43:40.580Z,50.908104
2022-08-27T00:44:40.569Z,50.908123
2022-08-27T00:45:40.641Z,50.908089
2022-08-27T00:46:40.582Z,50.908127
2022-08-27T00:47:40.567Z,50.908115
2022-08-27T00:48:40.548Z,50.908112
2022-08-27T00:49:40.537Z,50.908085
2022-08-27T00:50:40.530Z,50.908104
2022-08-27T00:51:40.549Z,50.908127
2022-08-27T00:52:40.516Z,50.908173
2022-08-27T00:53:40.505Z,50.908176
2022-08-27T00:54:40.497Z,50.908157
2022-08-27T00:55:40.488Z,50.908108
2022-08-27T00:56:41.510Z,50.908123
2022-08-27T00:57:40.474Z,50.908134
2022-08-27T00:58:40.467Z,50.908119
2022-08-27T00:59:40.461Z,50.908100
2022-08-27T01:00:40.470Z,50.908085
2022-08-27T01:01:40.470Z,50.907990
2022-08-27T01:02:40.445Z,50.908119
2022-08-27T01:03:40.434Z,50.908134
2022-08-27T01:04:40.419Z,50.908157
2022-08-27T01:05:40.417Z,50.908127
2022-08-27T01:06:40.430Z,50.908157
2022-08-27T01:07:40.405Z,50.908127
2022-08-27T01:08:40.392Z,50.908123
2022-08-27T01:09:40.385Z,50.908146
2022-08-27T01:10:41.388Z,50.908131
2022-08-27T01:11:40.399Z,50.908169
2022-08-27T01:12:40.360Z,50.908146
2022-08-27T01:14:00.454Z,50.908157
2022-08-27T01:14:41.345Z,50.908146
2022-08-27T01:15:40.346Z,50.908096
2022-08-27T01:16:40.445Z,50.908222
2022-08-27T01:17:40.329Z,50.908119
2022-08-27T01:18:40.317Z,50.908020
2022-08-27T01:19:40.314Z,50.908009
2022-08-27T01:20:40.308Z,50.908051
2022-08-27T01:21:40.327Z,50.908058
2022-08-27T01:22:40.289Z,50.908092
2022-08-27T01:23:40.270Z,50.908112
2022-08-27T01:24:41.272Z,50.908131
2022-08-27T01:25:40.272Z,50.908058
2022-08-27T01:26:40.261Z,50.907925
2022-08-27T01:27:40.275Z,50.907887
2022-08-27T01:28:40.239Z,50.907887
2022-08-27T01:29:40.241Z,50.907932
2022-08-27T01:30:40.228Z,50.908058
2022-08-27T01:31:40.326Z,50.908180
2022-08-27T01:32:40.203Z,50.908253
2022-08-27T01:33:40.198Z,50.908337
2022-08-27T01:34:40.194Z,50.908409
2022-08-27T01:35:40.338Z,50.908340
2022-08-27T01:36:40.177Z,50.908287
2022-08-27T01:37:40.198Z,50.908318
2022-08-27T01:38:40.168Z,50.908371
2022-08-27T01:39:40.718Z,50.908218
2022-08-27T01:40:40.242Z,50.908150
2022-08-27T01:41:40.170Z,50.908161
2022-08-27T01:42:40.132Z,50.908215
2022-08-27T01:43:40.125Z,50.908180
2022-08-27T01:44:40.120Z,50.908199
2022-08-27T01:45:40.115Z,50.908302
2022-08-27T01:46:40.175Z,50.908195
2022-08-27T01:47:40.104Z,50.908195
2022-08-27T01:48:40.090Z,50.908241
2022-08-27T01:49:40.088Z,50.908203
2022-08-27T01:50:40.074Z,50.908180
2022-08-27T01:51:40.088Z,50.908176
2022-08-27T01:52:40.063Z,50.908142
2022-08-27T01:53:40.065Z,50.908150
2022-08-27T01:54:40.043Z,50.908188
2022-08-27T01:55:40.036Z,50.908134
2022-08-27T01:56:40.055Z,50.908154
2022-08-27T01:57:40.027Z,50.908180
2022-08-27T01:58:40.007Z,50.908226
2022-08-27T01:59:40.185Z,50.908131
2022-08-27T02:00:40.024Z,50.908131
2022-08-27T02:01:40.043Z,50.908180
2022-08-27T02:02:39.978Z,50.908157
2022-08-27T02:03:40.984Z,50.908123
2022-08-27T02:04:39.972Z,50.908150
2022-08-27T02:05:45.043Z,50.908131
2022-08-27T02:06:40.975Z,50.908104
2022-08-27T02:07:39.949Z,50.908150
2022-08-27T02:08:39.931Z,50.908161
2022-08-27T02:09:39.936Z,50.908165
2022-08-27T02:10:39.931Z,50.908157
2022-08-27T02:11:44.862Z,50.908154
2022-08-27T02:12:40.909Z,50.908131
2022-08-27T02:13:39.906Z,50.908165
2022-08-27T02:14:39.895Z,50.908176
2022-08-27T02:15:39.890Z,50.908123
2022-08-27T02:16:41.973Z,50.908134
2022-08-27T02:17:40.869Z,50.908150
2022-08-27T02:18:41.652Z,50.908119
2022-08-27T02:19:39.848Z,50.908173
2022-08-27T02:20:39.840Z,50.908173
2022-08-27T02:21:39.857Z,50.908154
2022-08-27T02:22:39.826Z,50.908142
2022-08-27T02:23:39.829Z,50.908161
2022-08-27T02:24:39.809Z,50.908165
2022-08-27T02:25:39.809Z,50.908146
2022-08-27T02:26:39.791Z,50.908161
2022-08-27T02:27:39.815Z,50.908188
2022-08-27T02:28:39.784Z,50.908165
2022-08-27T02:29:39.767Z,50.908134
2022-08-27T02:30:39.768Z,50.908199
2022-08-27T02:31:39.810Z,50.908195
2022-08-27T02:32:39.782Z,50.908169
2022-08-27T02:33:39.748Z,50.908184
2022-08-27T02:34:39.730Z,50.908157
2022-08-27T02:35:39.728Z,50.908154
2022-08-27T02:36:39.722Z,50.908157
2022-08-27T02:37:39.737Z,50.908176
2022-08-27T02:38:39.708Z,50.908157
2022-08-27T02:39:42.098Z,50.908184
2022-08-27T02:40:40.691Z,50.908157
2022-08-27T02:41:39.679Z,50.908173
2022-08-27T02:42:39.698Z,50.908173
2022-08-27T02:43:39.669Z,50.908154
2022-08-27T02:44:39.652Z,50.908138
2022-08-27T02:45:39.639Z,50.908157
2022-08-27T02:46:40.690Z,50.908157
2022-08-27T02:47:39.656Z,50.908157
2022-08-27T02:48:40.621Z,50.908161
2022-08-27T02:49:39.613Z,50.908157
2022-08-27T02:50:39.610Z,50.908154
2022-08-27T02:51:39.601Z,50.908154
2022-08-27T02:52:39.623Z,50.908146
2022-08-27T02:53:39.583Z,50.908173
2022-08-27T02:54:39.580Z,50.908184
2022-08-27T02:55:39.574Z,50.908184
2022-08-27T02:56:39.565Z,50.908157
2022-08-27T02:57:39.581Z,50.908169
2022-08-27T02:58:39.558Z,50.908169
2022-08-27T02:59:39.542Z,50.908176
2022-08-27T03:00:39.539Z,50.908169
2022-08-27T03:01:39.630Z,50.908157
2022-08-27T03:02:39.764Z,50.908157
2022-08-27T03:03:39.512Z,50.908169
2022-08-27T03:04:39.501Z,50.908157
2022-08-27T03:05:39.502Z,50.908165
2022-08-27T03:06:39.498Z,50.908154
2022-08-27T03:07:39.507Z,50.908150
2022-08-27T03:08:52.387Z,50.908157
2022-08-27T03:09:40.462Z,50.908157
2022-08-27T03:10:39.459Z,50.908154
2022-08-27T03:11:39.444Z,50.908188
2022-08-27T03:12:39.475Z,50.908142
2022-08-27T03:13:39.434Z,50.908180
2022-08-27T03:14:39.424Z,50.908230
2022-08-27T03:15:39.505Z,50.908161
2022-08-27T03:16:39.409Z,50.908157
2022-08-27T03:17:39.430Z,50.908142
2022-08-27T03:18:39.425Z,50.908119
2022-08-27T03:19:39.389Z,50.908096
2022-08-27T03:20:39.381Z,50.908108
2022-08-27T03:21:39.382Z,50.908134
2022-08-27T03:22:39.451Z,50.908157
2022-08-27T03:23:39.359Z,50.908112
2022-08-27T03:24:39.356Z,50.908108
2022-08-27T03:25:39.350Z,50.908131
2022-08-27T03:26:39.353Z,50.908134
2022-08-27T03:27:39.354Z,50.908031
2022-08-27T03:28:39.323Z,50.908012
2022-08-27T03:29:39.307Z,50.908085
2022-08-27T03:30:39.304Z,50.908112
2022-08-27T03:31:39.332Z,50.908112
2022-08-27T03:32:39.320Z,50.908081
2022-08-27T03:33:39.279Z,50.908092
2022-08-27T03:34:39.275Z,50.908100
2022-08-27T03:35:39.264Z,50.908115
2022-08-27T03:36:39.262Z,50.908119
2022-08-27T03:37:39.283Z,50.908047
2022-08-27T03:38:39.248Z,50.908119
2022-08-27T03:39:39.234Z,50.908131
2022-08-27T03:40:39.228Z,50.908138
2022-08-27T03:41:54.246Z,50.908134
2022-08-27T03:42:40.232Z,50.908154
2022-08-27T03:43:39.201Z,50.908154
2022-08-27T03:44:39.194Z,50.908157
2022-08-27T03:46:00.732Z,50.908150
2022-08-27T03:46:40.208Z,50.908115
2022-08-27T03:47:39.200Z,50.908108
2022-08-27T03:48:39.163Z,50.908104
2022-08-27T03:49:39.153Z,50.908108
2022-08-27T03:50:39.153Z,50.908096
2022-08-27T03:51:39.143Z,50.908127
2022-08-27T03:52:39.140Z,50.908047
2022-08-27T03:53:39.164Z,50.908081
2022-08-27T03:54:39.116Z,50.908112
2022-08-27T03:55:39.115Z,50.908142
2022-08-27T03:56:39.110Z,50.908192
2022-08-27T03:57:39.095Z,50.908211
2022-08-27T03:58:39.117Z,50.908123
2022-08-27T03:59:39.084Z,50.908157
2022-08-27T04:00:39.075Z,50.908154
2022-08-27T04:01:39.150Z,50.908138
2022-08-27T04:02:39.096Z,50.908096
2022-08-27T04:03:39.082Z,50.908108
2022-08-27T04:04:39.049Z,50.908096
2022-08-27T04:05:39.038Z,50.908146
2022-08-27T04:06:39.027Z,50.908165
2022-08-27T04:07:39.026Z,50.908157
2022-08-27T04:08:39.035Z,50.908127
2022-08-27T04:09:39.012Z,50.908134
2022-08-27T04:10:39.004Z,50.908154
2022-08-27T04:11:38.991Z,50.908138
2022-08-27T04:12:38.983Z,50.908131
2022-08-27T04:13:39.007Z,50.908127
2022-08-27T04:14:38.967Z,50.908115
2022-08-27T04:15:40.809Z,50.908150
2022-08-27T04:16:38.956Z,50.908138
2022-08-27T04:17:38.947Z,50.908150
2022-08-27T04:18:39.024Z,50.908142
2022-08-27T04:19:38.933Z,50.908150
2022-08-27T04:20:38.927Z,50.908131
2022-08-27T04:21:38.926Z,50.908138
2022-08-27T04:22:38.916Z,50.908134
2022-08-27T04:23:38.938Z,50.908112
2022-08-27T04:24:38.910Z,50.908108
2022-08-27T04:25:38.895Z,50.908157
2022-08-27T04:26:38.890Z,50.908169
2022-08-27T04:27:38.902Z,50.908096
2022-08-27T04:28:39.186Z,50.908100
2022-08-27T04:29:38.856Z,50.908089
2022-08-27T04:30:38.847Z,50.908096
2022-08-27T04:31:38.929Z,50.908134
2022-08-27T04:32:38.862Z,50.908123
2022-08-27T04:33:38.830Z,50.908051
2022-08-27T04:34:38.819Z,50.908058
2022-08-27T04:35:38.814Z,50.908161
2022-08-27T04:36:38.802Z,50.908150
2022-08-27T04:37:38.823Z,50.908096
2022-08-27T04:38:38.790Z,50.908176
2022-08-27T04:39:38.778Z,50.908161
2022-08-27T04:40:38.772Z,50.908127
2022-08-27T04:41:38.762Z,50.908161
2022-08-27T04:42:38.759Z,50.908089
2022-08-27T04:43:38.775Z,50.907959
2022-08-27T04:44:38.740Z,50.908054
2022-08-27T04:45:38.731Z,50.908108
2022-08-27T04:46:38.827Z,50.908134
2022-08-27T04:47:38.721Z,50.908123
2022-08-27T04:48:38.739Z,50.908104
2022-08-27T04:49:38.705Z,50.908112
2022-08-27T04:50:38.692Z,50.908085
2022-08-27T04:51:40.013Z,50.908123
2022-08-27T04:52:41.156Z,50.908115
2022-08-27T04:53:38.698Z,50.908115
2022-08-27T04:54:38.668Z,50.908115
2022-08-27T04:55:38.659Z,50.908115
2022-08-27T04:56:38.655Z,50.908127
2022-08-27T04:57:38.648Z,50.908127
2022-08-27T04:58:38.653Z,50.908127
2022-08-27T04:59:38.618Z,50.908062
2022-08-27T05:00:38.612Z,50.908062
2022-08-27T05:01:38.667Z,50.908062
2022-08-27T05:02:38.606Z,50.908085
2022-08-27T05:03:38.622Z,50.908127
2022-08-27T05:04:38.591Z,50.908127
2022-08-27T05:05:38.606Z,50.908108
2022-08-27T05:06:38.575Z,50.908134
2022-08-27T05:07:38.564Z,50.908161
2022-08-27T05:08:38.577Z,50.908100
2022-08-27T05:09:38.547Z,50.908108
2022-08-27T05:10:38.536Z,50.908123
2022-08-27T05:11:38.532Z,50.908077
2022-08-27T05:12:38.518Z,50.908127
2022-08-27T05:13:38.544Z,50.908176
2022-08-27T05:14:38.505Z,50.908192
2022-08-27T05:15:38.583Z,50.908150
2022-08-27T05:16:38.494Z,50.908199
2022-08-27T05:17:38.483Z,50.908176
2022-08-27T05:18:42.284Z,50.908131
2022-08-27T05:19:39.473Z,50.908134
2022-08-27T05:20:38.465Z,50.908138
2022-08-27T05:21:38.450Z,50.908131
2022-08-27T05:22:38.453Z,50.908108
2022-08-27T05:23:38.474Z,50.908142
2022-08-27T05:24:38.431Z,50.908131
2022-08-27T05:25:38.432Z,50.908165
2022-08-27T05:26:38.422Z,50.908115
2022-08-27T05:27:38.412Z,50.908112
2022-08-27T05:28:38.429Z,50.908138
2022-08-27T05:29:38.395Z,50.908119
2022-08-27T05:30:38.451Z,50.908100
2022-08-27T05:31:38.458Z,50.908123
2022-08-27T05:32:38.371Z,50.908131
2022-08-27T05:33:38.355Z,50.908123
2022-08-27T05:34:38.376Z,50.908092
2022-08-27T05:35:38.341Z,50.908134
2022-08-27T05:36:38.333Z,50.908108
2022-08-27T05:37:39.326Z,50.908119
2022-08-27T05:38:38.328Z,50.908161
2022-08-27T05:39:38.344Z,50.908058
2022-08-27T05:40:38.310Z,50.908134
2022-08-27T05:41:38.295Z,50.908104
2022-08-27T05:42:38.289Z,50.908081
2022-08-27T05:43:38.279Z,50.908047
2022-08-27T05:44:42.138Z,50.908051
2022-08-27T05:45:39.269Z,50.908085
2022-08-27T05:46:38.316Z,50.908127
2022-08-27T05:47:44.471Z,50.908085
2022-08-27T05:48:39.248Z,50.908073
2022-08-27T05:49:38.265Z,50.908104
2022-08-27T05:50:38.229Z,50.908100
2022-08-27T05:51:38.218Z,50.908100
2022-08-27T05:52:38.214Z,50.908100
2022-08-27T05:53:38.207Z,50.907928
2022-08-27T05:54:38.223Z,50.908207
2022-08-27T05:55:38.194Z,50.908184
2022-08-27T05:56:38.190Z,50.908146
2022-08-27T05:57:38.174Z,50.908142
2022-08-27T05:58:38.168Z,50.908104
2022-08-27T05:59:38.182Z,50.908131
2022-08-27T06:00:38.160Z,50.908127
2022-08-27T06:01:38.144Z,50.908119
2022-08-27T06:02:38.197Z,50.908127
2022-08-27T06:03:38.124Z,50.908161
2022-08-27T06:04:38.142Z,50.908165
2022-08-27T06:05:38.164Z,50.908134
2022-08-27T06:06:38.105Z,50.908134
2022-08-27T06:07:38.095Z,50.908134
2022-08-27T06:08:38.090Z,50.908112
2022-08-27T06:09:38.104Z,50.908138
2022-08-27T06:10:38.072Z,50.908131
2022-08-27T06:11:38.060Z,50.908119
2022-08-27T06:12:38.055Z,50.908119
2022-08-27T06:13:38.068Z,50.908131
2022-08-27T06:14:38.067Z,50.908138
2022-08-27T06:15:38.092Z,50.908131
2022-08-27T06:16:38.020Z,50.908138
2022-08-27T06:17:38.012Z,50.908176
2022-08-27T06:18:39.010Z,50.908131
2022-08-27T06:19:38.025Z,50.908119
2022-08-27T06:20:37.993Z,50.908150
2022-08-27T06:21:37.984Z,50.908131
2022-08-27T06:22:37.976Z,50.908173
2022-08-27T06:23:37.965Z,50.908115
2022-08-27T06:24:37.995Z,50.908077
2022-08-27T06:25:37.961Z,50.908092
2022-08-27T06:26:37.943Z,50.908138
2022-08-27T06:27:37.938Z,50.908169
2022-08-27T06:28:37.930Z,50.908119
2022-08-27T06:29:37.954Z,50.908127
2022-08-27T06:30:37.948Z,50.908127
2022-08-27T06:31:38.801Z,50.908115
2022-08-27T06:32:37.901Z,50.908104
2022-08-27T06:33:37.895Z,50.908108
2022-08-27T06:34:37.923Z,50.908112
2022-08-27T06:35:37.885Z,50.908089
2022-08-27T06:36:37.878Z,50.908100
2022-08-27T06:37:37.869Z,50.908123
2022-08-27T06:38:37.860Z,50.908112
2022-08-27T06:39:37.891Z,50.908112
2022-08-27T06:40:37.912Z,50.908108
2022-08-27T06:41:37.834Z,50.908100
2022-08-27T06:42:37.822Z,50.908081
2022-08-27T06:43:37.817Z,50.908104
2022-08-27T06:44:37.838Z,50.908100
2022-08-27T06:45:37.807Z,50.908108
2022-08-27T06:46:37.844Z,50.908100
2022-08-27T06:47:37.783Z,50.908104
2022-08-27T06:48:37.781Z,50.908104
2022-08-27T06:49:38.802Z,50.908112
2022-08-27T06:50:37.764Z,50.908051
2022-08-27T06:51:37.755Z,50.908047
2022-08-27T06:52:37.747Z,50.908077
2022-08-27T06:53:37.746Z,50.908077
2022-08-27T06:54:37.754Z,50.908100
2022-08-27T06:55:37.727Z,50.908031
2022-08-27T06:56:37.724Z,50.908085
2022-08-27T06:57:37.707Z,50.908092
2022-08-27T06:58:37.701Z,50.908073
2022-08-27T06:59:38.768Z,50.908092
2022-08-27T07:00:37.690Z,50.908085
2022-08-27T07:01:37.733Z,50.908031
2022-08-27T07:02:37.844Z,50.908016
2022-08-27T07:03:37.668Z,50.908073
2022-08-27T07:04:37.689Z,50.908016
2022-08-27T07:05:37.648Z,50.908031
2022-08-27T07:06:37.639Z,50.908066
2022-08-27T07:07:43.168Z,50.908070
2022-08-27T07:08:39.626Z,50.908020
2022-08-27T07:09:37.645Z,50.908012
2022-08-27T07:10:37.608Z,50.908096
2022-08-27T07:11:37.610Z,50.908115
2022-08-27T07:12:37.594Z,50.908077
2022-08-27T07:13:37.587Z,50.908066
2022-08-27T07:14:38.402Z,50.908089
2022-08-27T07:15:38.616Z,50.908058
2022-08-27T07:16:37.564Z,50.908077
2022-08-27T07:17:37.560Z,50.908123
2022-08-27T07:18:37.547Z,50.908115
2022-08-27T07:19:37.568Z,50.907970
2022-08-27T07:20:37.539Z,50.907932
2022-08-27T07:21:37.534Z,50.907997
2022-08-27T07:22:37.519Z,50.908081
2022-08-27T07:23:37.514Z,50.908089
2022-08-27T07:24:37.531Z,50.908119
2022-08-27T07:25:37.494Z,50.908157
2022-08-27T07:26:37.488Z,50.908127
2022-08-27T07:27:37.482Z,50.908146
2022-08-27T07:28:37.472Z,50.908165
2022-08-27T07:29:37.490Z,50.908146
2022-08-27T07:30:37.505Z,50.908134
2022-08-27T07:31:37.449Z,50.908115
2022-08-27T07:32:37.460Z,50.908112
2022-08-27T07:33:37.437Z,50.908123
2022-08-27T07:34:37.457Z,50.908146
2022-08-27T07:35:37.426Z,50.908127
2022-08-27T07:36:37.420Z,50.908108
2022-08-27T07:37:37.406Z,50.908142
2022-08-27T07:38:37.407Z,50.908180
2022-08-27T07:39:37.419Z,50.908138
2022-08-27T07:40:37.422Z,50.908146
2022-08-27T07:41:37.375Z,50.908211
2022-08-27T07:42:37.370Z,50.908104
2022-08-27T07:43:37.359Z,50.908173
2022-08-27T07:44:37.371Z,50.908119
2022-08-27T07:45:37.363Z,50.908092
2022-08-27T07:46:40.066Z,50.908081
2022-08-27T07:47:38.324Z,50.908104
2022-08-27T07:48:37.913Z,50.908306
2022-08-27T07:49:37.337Z,50.908028
2022-08-27T07:50:37.302Z,50.908089
2022-08-27T07:51:37.296Z,50.908096
2022-08-27T07:52:37.285Z,50.908112
2022-08-27T07:53:37.285Z,50.908062
2022-08-27T07:54:37.296Z,50.908051
2022-08-27T07:55:37.281Z,50.908058
2022-08-27T07:56:37.309Z,50.908115
2022-08-27T07:57:37.253Z,50.908051
2022-08-27T07:58:37.247Z,50.908092
2022-08-27T07:59:37.262Z,50.908062
2022-08-27T08:00:37.227Z,50.908054
2022-08-27T08:01:37.267Z,50.908043
2022-08-27T08:02:37.252Z,50.908070
2022-08-27T08:03:37.213Z,50.908108
2022-08-27T08:04:37.224Z,50.908119
2022-08-27T08:05:37.190Z,50.908112
2022-08-27T08:06:37.184Z,50.908115
2022-08-27T08:07:37.174Z,50.908119
2022-08-27T08:08:37.173Z,50.908127
2022-08-27T08:09:37.186Z,50.908112
2022-08-27T08:10:37.154Z,50.908123
2022-08-27T08:11:37.149Z,50.908138
2022-08-27T08:12:37.134Z,50.908157
2022-08-27T08:13:37.138Z,50.908184
2022-08-27T08:14:37.154Z,50.908134
2022-08-27T08:15:37.114Z,50.908176
2022-08-27T08:16:37.141Z,50.908154
2022-08-27T08:17:37.119Z,50.908119
2022-08-27T08:18:37.092Z,50.908138
2022-08-27T08:19:37.085Z,50.908146
2022-08-27T08:20:57.009Z,50.908100
2022-08-27T08:21:39.087Z,50.908108
2022-08-27T08:22:37.057Z,50.908127
2022-08-27T08:23:37.055Z,50.908123
2022-08-27T08:24:37.047Z,50.908096
2022-08-27T08:25:38.766Z,50.908207
2022-08-27T08:26:37.038Z,50.908154
2022-08-27T08:27:37.030Z,50.908131
2022-08-27T08:28:37.028Z,50.908127
2022-08-27T08:29:37.004Z,50.908108
2022-08-27T08:30:38.087Z,50.908112
2022-08-27T08:31:37.001Z,50.908112
2022-08-27T08:32:36.987Z,50.908108
2022-08-27T08:33:36.979Z,50.908169
2022-08-27T08:34:36.978Z,50.908142
2022-08-27T08:35:40.887Z,50.908180
2022-08-27T08:36:36.959Z,50.908157
2022-08-27T08:37:36.947Z,50.908134
2022-08-27T08:38:36.944Z,50.908119
2022-08-27T08:39:36.930Z,50.908131
2022-08-27T08:40:36.974Z,50.908195
2022-08-27T08:41:36.919Z,50.908146
2022-08-27T08:42:36.910Z,50.908157
2022-08-27T08:43:36.901Z,50.908138
2022-08-27T08:44:36.902Z,50.908001
2022-08-27T08:45:36.961Z,50.908024
2022-08-27T08:46:36.879Z,50.908123
2022-08-27T08:47:36.873Z,50.908142
2022-08-27T08:48:36.868Z,50.908134
2022-08-27T08:49:36.858Z,50.908146
2022-08-27T08:50:36.873Z,50.908131
2022-08-27T08:51:36.841Z,50.908077
2022-08-27T08:52:36.833Z,50.908112
2022-08-27T08:53:36.827Z,50.908127
2022-08-27T08:54:36.816Z,50.908123
2022-08-27T08:55:36.836Z,50.908112
2022-08-27T08:56:36.803Z,50.908138
2022-08-27T08:57:36.798Z,50.908134
2022-08-27T08:58:36.787Z,50.908134
2022-08-27T08:59:36.779Z,50.908127
2022-08-27T09:00:36.795Z,50.908138
2022-08-27T09:01:36.872Z,50.908165
2022-08-27T09:02:36.757Z,50.908131
2022-08-27T09:03:36.767Z,50.908115
2022-08-27T09:04:36.740Z,50.908115
2022-08-27T09:05:36.758Z,50.908180
2022-08-27T09:06:36.721Z,50.908184
2022-08-27T09:07:36.845Z,50.908150
2022-08-27T09:08:41.056Z,50.908150
2022-08-27T09:09:37.731Z,50.908180
2022-08-27T09:10:36.719Z,50.908115
2022-08-27T09:11:36.692Z,50.908119
2022-08-27T09:12:36.686Z,50.908154
2022-08-27T09:13:36.670Z,50.908192
2022-08-27T09:14:36.664Z,50.908138
2022-08-27T09:15:36.685Z,50.908119
2022-08-27T09:16:36.703Z,50.908157
2022-08-27T09:17:36.626Z,50.908115
2022-08-27T09:18:37.633Z,50.908157
2022-08-27T09:19:36.616Z,50.908138
2022-08-27T09:20:37.637Z,50.908150
2022-08-27T09:21:36.607Z,50.908134
2022-08-27T09:22:36.598Z,50.908142
2022-08-27T09:23:36.589Z,50.908161
2022-08-27T09:24:36.586Z,50.908142
2022-08-27T09:25:36.604Z,50.908100
2022-08-27T09:26:37.179Z,50.908127
2022-08-27T09:27:36.557Z,50.908108
2022-08-27T09:28:36.550Z,50.908134
2022-08-27T09:29:36.542Z,50.908180
2022-08-27T09:30:36.617Z,50.908154
2022-08-27T09:31:36.529Z,50.908157
2022-08-27T09:32:36.520Z,50.908173
2022-08-27T09:33:44.483Z,50.908092
2022-08-27T09:34:37.502Z,50.908016
2022-08-27T09:35:36.522Z,50.908100
2022-08-27T09:36:36.501Z,50.908104
2022-08-27T09:37:36.481Z,50.908134
2022-08-27T09:38:36.473Z,50.908108
2022-08-27T09:39:36.463Z,50.908108
2022-08-27T09:40:36.559Z,50.908112
2022-08-27T09:41:36.446Z,50.908100
2022-08-27T09:42:36.439Z,50.908073
2022-08-27T09:43:36.432Z,50.908077
2022-08-27T09:44:36.427Z,50.908108
2022-08-27T09:45:36.514Z,50.908134
2022-08-27T09:46:36.411Z,50.908131
2022-08-27T09:47:36.404Z,50.908096
2022-08-27T09:48:36.393Z,50.908031
2022-08-27T09:49:36.385Z,50.908054
2022-08-27T09:50:38.623Z,50.908073
2022-08-27T09:51:37.370Z,50.908085
2022-08-27T09:52:37.716Z,50.908062
2022-08-27T09:53:36.362Z,50.908058
2022-08-27T09:54:36.347Z,50.908081
2022-08-27T09:55:36.367Z,50.907970
2022-08-27T09:56:36.388Z,50.908005
2022-08-27T09:57:36.321Z,50.908005
2022-08-27T09:58:36.317Z,50.907970
2022-08-27T09:59:36.309Z,50.908020
2022-08-27T10:00:36.344Z,50.907948
2022-08-27T10:01:36.395Z,50.907978
2022-08-27T10:02:36.286Z,50.907932
2022-08-27T10:03:36.356Z,50.907856
2022-08-27T10:04:50.174Z,50.907982
2022-08-27T10:05:37.295Z,50.908020
2022-08-27T10:06:36.257Z,50.908077
2022-08-27T10:07:36.245Z,50.907993
2022-08-27T10:08:36.240Z,50.908001
2022-08-27T10:09:36.232Z,50.908024
2022-08-27T10:10:36.249Z,50.908043
2022-08-27T10:11:36.251Z,50.908016
2022-08-27T10:12:36.209Z,50.908051
2022-08-27T10:13:36.207Z,50.908058
2022-08-27T10:14:36.194Z,50.908066
2022-08-27T10:15:36.476Z,50.908039
2022-08-27T10:16:37.220Z,50.908005
2022-08-27T10:17:36.172Z,50.908047
2022-08-27T10:18:36.168Z,50.908283
2022-08-27T10:19:36.158Z,50.908066
2022-08-27T10:20:36.174Z,50.908047
2022-08-27T10:21:36.142Z,50.908043
2022-08-27T10:22:36.141Z,50.908016
2022-08-27T10:23:36.125Z,50.908043
2022-08-27T10:24:36.120Z,50.908051
2022-08-27T10:25:36.134Z,50.907990
2022-08-27T10:26:36.098Z,50.908020
2022-08-27T10:27:36.093Z,50.908054
2022-08-27T10:28:36.085Z,50.908035
2022-08-27T10:29:36.075Z,50.908047
2022-08-27T10:30:36.096Z,50.908070
2022-08-27T10:31:36.145Z,50.908009
2022-08-27T10:32:36.053Z,50.908047
2022-08-27T10:33:36.044Z,50.908062
2022-08-27T10:34:37.501Z,50.908054
2022-08-27T10:35:36.058Z,50.908062
2022-08-27T10:36:37.019Z,50.908066
2022-08-27T10:37:40.211Z,50.908051
2022-08-27T10:38:36.007Z,50.908104
2022-08-27T10:39:35.993Z,50.908066
2022-08-27T10:40:36.073Z,50.908073
2022-08-27T10:41:35.979Z,50.908066
2022-08-27T10:42:35.973Z,50.908058
2022-08-27T10:43:35.963Z,50.908058
2022-08-27T10:44:36.957Z,50.908077
2022-08-27T10:45:36.024Z,50.908070
2022-08-27T10:46:36.010Z,50.908081
2022-08-27T10:47:36.937Z,50.908073
2022-08-27T10:48:35.932Z,50.908092
2022-08-27T10:49:35.921Z,50.908100
2022-08-27T10:50:35.915Z,50.908070
2022-08-27T10:51:35.933Z,50.908085
2022-08-27T10:52:35.898Z,50.908077
2022-08-27T10:53:35.893Z,50.908085
2022-08-27T10:54:35.885Z,50.908062
2022-08-27T10:55:35.876Z,50.908112
2022-08-27T10:56:35.895Z,50.908112
2022-08-27T10:57:55.252Z,50.908092
2022-08-27T10:58:37.857Z,50.908089
2022-08-27T10:59:35.852Z,50.908051
2022-08-27T11:00:35.868Z,50.908104
2022-08-27T11:01:35.858Z,50.908123
2022-08-27T11:02:35.886Z,50.908108
2022-08-27T11:03:35.818Z,50.908112
2022-08-27T11:04:35.812Z,50.908108
2022-08-27T11:05:35.806Z,50.908131
2022-08-27T11:06:35.821Z,50.908123
2022-08-27T11:07:35.776Z,50.908096
2022-08-27T11:08:36.781Z,50.908119
2022-08-27T11:09:35.774Z,50.908096
2022-08-27T11:10:35.765Z,50.908123
2022-08-27T11:12:37.748Z,50.908112
2022-08-27T11:13:35.741Z,50.908115
2022-08-27T11:14:35.729Z,50.908104
2022-08-27T11:15:35.723Z,50.908108
2022-08-27T11:16:35.780Z,50.908089
2022-08-27T11:17:35.710Z,50.908146
2022-08-27T11:18:35.703Z,50.908092
2022-08-27T11:19:35.698Z,50.908112
2022-08-27T11:20:35.681Z,50.908089
2022-08-27T11:21:35.702Z,50.908096
2022-08-27T11:22:35.669Z,50.908043
2022-08-27T11:23:35.659Z,50.908096
2022-08-27T11:24:35.652Z,50.908081
2022-08-27T11:25:35.642Z,50.908062